sensor_id;sensor_type;location;lat;lon;timestamp;P1;durP1;ratioP1;P2;durP2;ratioP2
72406;SDS011;60396;47.550;18.828;2023-04-15T00:02:25;11.20;;;5.30;;
72406;SDS011;60396;47.550;18.828;2023-04-15T00:04:53;10.93;;;4.90;;
72406;SDS011;60396;47.550;18.828;2023-04-15T00:07:21;10.15;;;4.80;;
72406;SDS011;60396;47.550;18.828;2023-04-15T00:09:48;10.50;;;4.15;;
72406;SDS011;60396;47.550;18.828;2023-04-15T00:12:16;10.85;;;4.22;;
72406;SDS011;60396;47.550;18.828;2023-04-15T00:14:43;11.00;;;3.77;;
72406;SDS011;60396;47.550;18.828;2023-04-15T00:17:11;7.37;;;2.92;;
72406;SDS011;60396;47.550;18.828;2023-04-15T00:19:39;9.55;;;3.30;;
72406;SDS011;60396;47.550;18.828;2023-04-15T00:22:07;8.25;;;3.37;;
72406;SDS011;60396;47.550;18.828;2023-04-15T00:24:35;10.13;;;4.50;;
72406;SDS011;60396;47.550;18.828;2023-04-15T00:27:03;9.63;;;3.97;;
72406;SDS011;60396;47.550;18.828;2023-04-15T00:29:30;8.98;;;4.10;;
72406;SDS011;60396;47.550;18.828;2023-04-15T00:31:58;9.60;;;3.35;;
72406;SDS011;60396;47.550;18.828;2023-04-15T00:34:26;6.87;;;2.90;;
72406;SDS011;60396;47.550;18.828;2023-04-15T00:36:55;6.85;;;2.87;;
72406;SDS011;60396;47.550;18.828;2023-04-15T00:39:22;7.47;;;2.60;;
72406;SDS011;60396;47.550;18.828;2023-04-15T00:41:50;6.95;;;2.85;;
72406;SDS011;60396;47.550;18.828;2023-04-15T00:44:18;6.78;;;2.65;;
72406;SDS011;60396;47.550;18.828;2023-04-15T00:46:46;7.32;;;2.85;;
72406;SDS011;60396;47.550;18.828;2023-04-15T00:49:15;6.15;;;2.28;;
72406;SDS011;60396;47.550;18.828;2023-04-15T00:51:44;6.27;;;2.17;;
72406;SDS011;60396;47.550;18.828;2023-04-15T00:54:12;5.93;;;1.92;;
72406;SDS011;60396;47.550;18.828;2023-04-15T00:56:40;6.50;;;2.00;;
72406;SDS011;60396;47.550;18.828;2023-04-15T00:59:08;5.75;;;1.80;;
72406;SDS011;60396;47.550;18.828;2023-04-15T01:01:36;4.75;;;1.55;;
72406;SDS011;60396;47.550;18.828;2023-04-15T01:04:05;5.00;;;1.60;;
72406;SDS011;60396;47.550;18.828;2023-04-15T01:06:33;5.22;;;1.20;;
72406;SDS011;60396;47.550;18.828;2023-04-15T01:09:01;4.80;;;1.75;;
72406;SDS011;60396;47.550;18.828;2023-04-15T01:11:31;6.30;;;1.62;;
72406;SDS011;60396;47.550;18.828;2023-04-15T01:14:00;5.65;;;1.67;;
72406;SDS011;60396;47.550;18.828;2023-04-15T01:16:29;4.50;;;1.40;;
72406;SDS011;60396;47.550;18.828;2023-04-15T01:18:57;5.55;;;1.40;;
72406;SDS011;60396;47.550;18.828;2023-04-15T01:21:25;5.25;;;1.87;;
72406;SDS011;60396;47.550;18.828;2023-04-15T01:23:53;5.60;;;1.37;;
72406;SDS011;60396;47.550;18.828;2023-04-15T01:26:23;7.28;;;1.90;;
72406;SDS011;60396;47.550;18.828;2023-04-15T01:28:50;4.30;;;1.33;;
72406;SDS011;60396;47.550;18.828;2023-04-15T01:31:20;4.93;;;1.60;;
72406;SDS011;60396;47.550;18.828;2023-04-15T01:33:48;5.50;;;1.67;;
72406;SDS011;60396;47.550;18.828;2023-04-15T01:36:15;5.60;;;1.92;;
72406;SDS011;60396;47.550;18.828;2023-04-15T01:38:44;5.15;;;1.80;;
72406;SDS011;60396;47.550;18.828;2023-04-15T01:41:13;4.77;;;1.53;;
72406;SDS011;60396;47.550;18.828;2023-04-15T01:43:41;5.12;;;1.52;;
72406;SDS011;60396;47.550;18.828;2023-04-15T01:46:09;4.45;;;1.50;;
72406;SDS011;60396;47.550;18.828;2023-04-15T01:48:37;5.40;;;1.65;;
72406;SDS011;60396;47.550;18.828;2023-04-15T01:51:04;7.20;;;1.73;;
72406;SDS011;60396;47.550;18.828;2023-04-15T01:53:32;5.13;;;1.53;;
72406;SDS011;60396;47.550;18.828;2023-04-15T01:56:01;5.25;;;1.70;;
72406;SDS011;60396;47.550;18.828;2023-04-15T01:58:29;5.37;;;1.40;;
72406;SDS011;60396;47.550;18.828;2023-04-15T02:00:57;5.60;;;1.70;;
72406;SDS011;60396;47.550;18.828;2023-04-15T02:03:25;4.75;;;1.33;;
72406;SDS011;60396;47.550;18.828;2023-04-15T02:05:53;5.50;;;1.50;;
72406;SDS011;60396;47.550;18.828;2023-04-15T02:08:21;4.72;;;1.52;;
72406;SDS011;60396;47.550;18.828;2023-04-15T02:10:49;4.35;;;1.40;;
72406;SDS011;60396;47.550;18.828;2023-04-15T02:13:17;5.25;;;1.70;;
72406;SDS011;60396;47.550;18.828;2023-04-15T02:15:46;6.18;;;2.05;;
72406;SDS011;60396;47.550;18.828;2023-04-15T02:18:15;6.43;;;1.77;;
72406;SDS011;60396;47.550;18.828;2023-04-15T02:20:43;5.18;;;1.77;;
72406;SDS011;60396;47.550;18.828;2023-04-15T02:23:12;5.07;;;1.70;;
72406;SDS011;60396;47.550;18.828;2023-04-15T02:25:43;6.20;;;1.90;;
72406;SDS011;60396;47.550;18.828;2023-04-15T02:28:20;5.70;;;1.80;;
72406;SDS011;60396;47.550;18.828;2023-04-15T02:30:48;5.47;;;2.20;;
72406;SDS011;60396;47.550;18.828;2023-04-15T02:33:19;5.47;;;2.05;;
72406;SDS011;60396;47.550;18.828;2023-04-15T02:35:48;5.25;;;1.75;;
72406;SDS011;60396;47.550;18.828;2023-04-15T02:38:15;6.18;;;2.37;;
72406;SDS011;60396;47.550;18.828;2023-04-15T02:40:44;6.75;;;2.30;;
72406;SDS011;60396;47.550;18.828;2023-04-15T02:43:12;6.27;;;2.13;;
72406;SDS011;60396;47.550;18.828;2023-04-15T02:45:40;6.82;;;2.35;;
72406;SDS011;60396;47.550;18.828;2023-04-15T02:48:09;6.80;;;2.75;;
72406;SDS011;60396;47.550;18.828;2023-04-15T02:50:37;6.70;;;2.35;;
72406;SDS011;60396;47.550;18.828;2023-04-15T02:53:07;7.00;;;2.70;;
72406;SDS011;60396;47.550;18.828;2023-04-15T02:55:35;7.03;;;2.80;;
72406;SDS011;60396;47.550;18.828;2023-04-15T02:58:03;7.57;;;3.00;;
72406;SDS011;60396;47.550;18.828;2023-04-15T03:00:30;7.93;;;3.45;;
72406;SDS011;60396;47.550;18.828;2023-04-15T03:03:00;7.72;;;3.30;;
72406;SDS011;60396;47.550;18.828;2023-04-15T03:05:29;7.47;;;3.40;;
72406;SDS011;60396;47.550;18.828;2023-04-15T03:07:57;8.23;;;3.60;;
72406;SDS011;60396;47.550;18.828;2023-04-15T03:10:24;10.88;;;3.50;;
72406;SDS011;60396;47.550;18.828;2023-04-15T03:12:52;8.00;;;3.53;;
72406;SDS011;60396;47.550;18.828;2023-04-15T03:15:20;7.87;;;3.65;;
72406;SDS011;60396;47.550;18.828;2023-04-15T03:17:48;8.77;;;3.80;;
72406;SDS011;60396;47.550;18.828;2023-04-15T03:20:16;8.80;;;3.90;;
72406;SDS011;60396;47.550;18.828;2023-04-15T03:22:44;8.80;;;3.55;;
72406;SDS011;60396;47.550;18.828;2023-04-15T03:25:12;9.98;;;3.65;;
72406;SDS011;60396;47.550;18.828;2023-04-15T03:27:40;11.07;;;3.95;;
72406;SDS011;60396;47.550;18.828;2023-04-15T03:30:08;9.05;;;3.90;;
72406;SDS011;60396;47.550;18.828;2023-04-15T03:32:36;8.63;;;4.17;;
72406;SDS011;60396;47.550;18.828;2023-04-15T03:35:05;9.95;;;4.18;;
72406;SDS011;60396;47.550;18.828;2023-04-15T03:37:33;9.70;;;4.70;;
72406;SDS011;60396;47.550;18.828;2023-04-15T03:40:01;8.75;;;4.40;;
72406;SDS011;60396;47.550;18.828;2023-04-15T03:42:29;9.75;;;4.53;;
72406;SDS011;60396;47.550;18.828;2023-04-15T03:44:56;11.73;;;4.50;;
72406;SDS011;60396;47.550;18.828;2023-04-15T03:47:24;9.77;;;5.00;;
72406;SDS011;60396;47.550;18.828;2023-04-15T03:49:52;11.27;;;4.97;;
72406;SDS011;60396;47.550;18.828;2023-04-15T03:52:19;9.98;;;5.18;;
72406;SDS011;60396;47.550;18.828;2023-04-15T03:54:47;9.85;;;4.85;;
72406;SDS011;60396;47.550;18.828;2023-04-15T03:57:15;12.40;;;5.87;;
72406;SDS011;60396;47.550;18.828;2023-04-15T03:59:42;11.35;;;5.82;;
72406;SDS011;60396;47.550;18.828;2023-04-15T04:02:10;12.63;;;6.28;;
72406;SDS011;60396;47.550;18.828;2023-04-15T04:04:38;12.30;;;6.32;;
72406;SDS011;60396;47.550;18.828;2023-04-15T04:07:05;13.82;;;6.90;;
72406;SDS011;60396;47.550;18.828;2023-04-15T04:09:33;12.87;;;6.63;;
72406;SDS011;60396;47.550;18.828;2023-04-15T04:12:01;13.65;;;6.70;;
72406;SDS011;60396;47.550;18.828;2023-04-15T04:14:36;13.05;;;7.60;;
72406;SDS011;60396;47.550;18.828;2023-04-15T04:17:04;13.93;;;7.82;;
72406;SDS011;60396;47.550;18.828;2023-04-15T04:19:31;15.55;;;8.88;;
72406;SDS011;60396;47.550;18.828;2023-04-15T04:22:00;15.57;;;8.70;;
72406;SDS011;60396;47.550;18.828;2023-04-15T04:24:27;14.68;;;8.45;;
72406;SDS011;60396;47.550;18.828;2023-04-15T04:26:55;14.73;;;8.35;;
72406;SDS011;60396;47.550;18.828;2023-04-15T04:29:23;16.02;;;7.87;;
72406;SDS011;60396;47.550;18.828;2023-04-15T04:31:51;17.00;;;8.25;;
72406;SDS011;60396;47.550;18.828;2023-04-15T04:34:18;14.47;;;8.60;;
72406;SDS011;60396;47.550;18.828;2023-04-15T04:36:46;14.15;;;8.60;;
72406;SDS011;60396;47.550;18.828;2023-04-15T04:39:14;17.83;;;9.00;;
72406;SDS011;60396;47.550;18.828;2023-04-15T04:41:43;17.30;;;9.23;;
72406;SDS011;60396;47.550;18.828;2023-04-15T04:44:11;15.15;;;8.02;;
72406;SDS011;60396;47.550;18.828;2023-04-15T04:46:39;17.13;;;8.10;;
72406;SDS011;60396;47.550;18.828;2023-04-15T04:49:07;14.43;;;7.85;;
72406;SDS011;60396;47.550;18.828;2023-04-15T04:51:34;15.77;;;8.43;;
72406;SDS011;60396;47.550;18.828;2023-04-15T04:54:03;14.93;;;8.23;;
72406;SDS011;60396;47.550;18.828;2023-04-15T04:56:30;15.73;;;8.27;;
72406;SDS011;60396;47.550;18.828;2023-04-15T04:58:58;15.63;;;8.20;;
72406;SDS011;60396;47.550;18.828;2023-04-15T05:01:26;13.35;;;7.60;;
72406;SDS011;60396;47.550;18.828;2023-04-15T05:03:54;13.30;;;7.50;;
72406;SDS011;60396;47.550;18.828;2023-04-15T05:06:22;11.52;;;6.68;;
72406;SDS011;60396;47.550;18.828;2023-04-15T05:08:50;12.40;;;6.90;;
72406;SDS011;60396;47.550;18.828;2023-04-15T05:11:18;12.67;;;7.00;;
72406;SDS011;60396;47.550;18.828;2023-04-15T05:13:45;11.75;;;6.60;;
72406;SDS011;60396;47.550;18.828;2023-04-15T05:16:13;13.15;;;6.47;;
72406;SDS011;60396;47.550;18.828;2023-04-15T05:18:41;10.57;;;6.15;;
72406;SDS011;60396;47.550;18.828;2023-04-15T05:21:09;12.30;;;6.03;;
72406;SDS011;60396;47.550;18.828;2023-04-15T05:23:37;11.37;;;5.13;;
72406;SDS011;60396;47.550;18.828;2023-04-15T05:26:04;10.68;;;5.43;;
72406;SDS011;60396;47.550;18.828;2023-04-15T05:28:32;10.88;;;5.20;;
72406;SDS011;60396;47.550;18.828;2023-04-15T05:31:00;9.65;;;5.10;;
72406;SDS011;60396;47.550;18.828;2023-04-15T05:33:28;9.00;;;4.85;;
72406;SDS011;60396;47.550;18.828;2023-04-15T05:35:55;9.87;;;4.97;;
72406;SDS011;60396;47.550;18.828;2023-04-15T05:38:23;8.65;;;4.30;;
72406;SDS011;60396;47.550;18.828;2023-04-15T05:40:50;9.18;;;4.37;;
72406;SDS011;60396;47.550;18.828;2023-04-15T05:43:18;10.07;;;4.35;;
72406;SDS011;60396;47.550;18.828;2023-04-15T05:45:46;8.50;;;4.12;;
72406;SDS011;60396;47.550;18.828;2023-04-15T05:48:13;9.87;;;5.23;;
72406;SDS011;60396;47.550;18.828;2023-04-15T05:50:41;10.35;;;4.45;;
72406;SDS011;60396;47.550;18.828;2023-04-15T05:53:09;9.43;;;4.87;;
72406;SDS011;60396;47.550;18.828;2023-04-15T05:55:36;9.30;;;4.57;;
72406;SDS011;60396;47.550;18.828;2023-04-15T05:58:04;9.18;;;4.43;;
72406;SDS011;60396;47.550;18.828;2023-04-15T06:00:32;10.37;;;4.03;;
72406;SDS011;60396;47.550;18.828;2023-04-15T06:03:01;8.30;;;4.25;;
72406;SDS011;60396;47.550;18.828;2023-04-15T06:05:28;7.55;;;3.80;;
72406;SDS011;60396;47.550;18.828;2023-04-15T06:07:56;7.75;;;3.72;;
72406;SDS011;60396;47.550;18.828;2023-04-15T06:10:24;8.20;;;3.80;;
72406;SDS011;60396;47.550;18.828;2023-04-15T06:12:51;9.93;;;4.10;;
72406;SDS011;60396;47.550;18.828;2023-04-15T06:15:19;7.90;;;4.03;;
72406;SDS011;60396;47.550;18.828;2023-04-15T06:17:47;7.97;;;4.22;;
72406;SDS011;60396;47.550;18.828;2023-04-15T06:20:15;7.35;;;3.60;;
72406;SDS011;60396;47.550;18.828;2023-04-15T06:22:42;8.38;;;3.72;;
72406;SDS011;60396;47.550;18.828;2023-04-15T06:25:10;8.57;;;3.73;;
72406;SDS011;60396;47.550;18.828;2023-04-15T06:27:38;8.10;;;3.83;;
72406;SDS011;60396;47.550;18.828;2023-04-15T06:30:05;8.30;;;4.05;;
72406;SDS011;60396;47.550;18.828;2023-04-15T06:32:34;9.25;;;4.18;;
72406;SDS011;60396;47.550;18.828;2023-04-15T06:35:02;8.93;;;4.50;;
72406;SDS011;60396;47.550;18.828;2023-04-15T06:37:30;8.57;;;4.33;;
72406;SDS011;60396;47.550;18.828;2023-04-15T06:39:59;10.85;;;5.47;;
72406;SDS011;60396;47.550;18.828;2023-04-15T06:42:26;10.93;;;5.60;;
72406;SDS011;60396;47.550;18.828;2023-04-15T06:44:54;11.15;;;5.55;;
72406;SDS011;60396;47.550;18.828;2023-04-15T06:47:22;11.95;;;5.85;;
72406;SDS011;60396;47.550;18.828;2023-04-15T06:49:49;12.70;;;6.40;;
72406;SDS011;60396;47.550;18.828;2023-04-15T06:52:17;11.35;;;5.95;;
72406;SDS011;60396;47.550;18.828;2023-04-15T06:54:45;13.23;;;6.80;;
72406;SDS011;60396;47.550;18.828;2023-04-15T06:57:13;10.90;;;6.40;;
72406;SDS011;60396;47.550;18.828;2023-04-15T06:59:40;11.93;;;6.47;;
72406;SDS011;60396;47.550;18.828;2023-04-15T07:02:10;14.23;;;6.60;;
72406;SDS011;60396;47.550;18.828;2023-04-15T07:04:39;11.20;;;6.72;;
72406;SDS011;60396;47.550;18.828;2023-04-15T07:07:07;12.45;;;7.45;;
72406;SDS011;60396;47.550;18.828;2023-04-15T07:09:34;12.48;;;7.05;;
72406;SDS011;60396;47.550;18.828;2023-04-15T07:12:02;11.85;;;6.47;;
72406;SDS011;60396;47.550;18.828;2023-04-15T07:14:30;12.20;;;6.73;;
72406;SDS011;60396;47.550;18.828;2023-04-15T07:16:58;11.75;;;6.32;;
72406;SDS011;60396;47.550;18.828;2023-04-15T07:19:26;11.25;;;6.55;;
72406;SDS011;60396;47.550;18.828;2023-04-15T07:21:53;9.35;;;4.47;;
72406;SDS011;60396;47.550;18.828;2023-04-15T07:24:21;7.60;;;3.60;;
72406;SDS011;60396;47.550;18.828;2023-04-15T07:26:53;7.07;;;3.40;;
72406;SDS011;60396;47.550;18.828;2023-04-15T07:29:27;8.85;;;4.05;;
72406;SDS011;60396;47.550;18.828;2023-04-15T07:31:54;11.10;;;3.90;;
72406;SDS011;60396;47.550;18.828;2023-04-15T07:34:23;10.52;;;3.20;;
72406;SDS011;60396;47.550;18.828;2023-04-15T07:36:51;8.75;;;3.90;;
72406;SDS011;60396;47.550;18.828;2023-04-15T07:39:19;6.43;;;2.73;;
72406;SDS011;60396;47.550;18.828;2023-04-15T07:41:46;8.07;;;2.80;;
72406;SDS011;60396;47.550;18.828;2023-04-15T07:44:15;9.32;;;3.60;;
72406;SDS011;60396;47.550;18.828;2023-04-15T07:46:43;7.12;;;3.00;;
72406;SDS011;60396;47.550;18.828;2023-04-15T07:49:10;8.15;;;3.28;;
72406;SDS011;60396;47.550;18.828;2023-04-15T07:51:39;10.07;;;3.73;;
72406;SDS011;60396;47.550;18.828;2023-04-15T07:54:07;8.48;;;3.58;;
72406;SDS011;60396;47.550;18.828;2023-04-15T07:56:35;13.85;;;5.28;;
72406;SDS011;60396;47.550;18.828;2023-04-15T07:59:03;7.68;;;2.80;;
72406;SDS011;60396;47.550;18.828;2023-04-15T08:01:32;13.85;;;4.57;;
72406;SDS011;60396;47.550;18.828;2023-04-15T08:04:00;9.17;;;3.30;;
72406;SDS011;60396;47.550;18.828;2023-04-15T08:06:28;17.02;;;5.75;;
72406;SDS011;60396;47.550;18.828;2023-04-15T08:08:56;14.60;;;4.55;;
72406;SDS011;60396;47.550;18.828;2023-04-15T08:11:24;11.95;;;3.75;;
72406;SDS011;60396;47.550;18.828;2023-04-15T08:13:52;9.68;;;2.60;;
72406;SDS011;60396;47.550;18.828;2023-04-15T08:16:20;6.63;;;2.57;;
72406;SDS011;60396;47.550;18.828;2023-04-15T08:18:54;7.05;;;2.20;;
72406;SDS011;60396;47.550;18.828;2023-04-15T08:21:23;6.20;;;1.75;;
72406;SDS011;60396;47.550;18.828;2023-04-15T08:23:51;4.97;;;1.42;;
72406;SDS011;60396;47.550;18.828;2023-04-15T08:26:20;8.73;;;2.40;;
72406;SDS011;60396;47.550;18.828;2023-04-15T08:28:48;7.13;;;2.33;;
72406;SDS011;60396;47.550;18.828;2023-04-15T08:31:17;4.15;;;1.27;;
72406;SDS011;60396;47.550;18.828;2023-04-15T08:33:45;5.40;;;1.60;;
72406;SDS011;60396;47.550;18.828;2023-04-15T08:36:12;5.35;;;1.65;;
72406;SDS011;60396;47.550;18.828;2023-04-15T08:38:40;5.35;;;1.30;;
72406;SDS011;60396;47.550;18.828;2023-04-15T08:41:17;7.40;;;1.57;;
72406;SDS011;60396;47.550;18.828;2023-04-15T08:43:52;5.35;;;1.58;;
72406;SDS011;60396;47.550;18.828;2023-04-15T08:46:23;7.35;;;1.50;;
72406;SDS011;60396;47.550;18.828;2023-04-15T08:48:51;5.70;;;1.95;;
72406;SDS011;60396;47.550;18.828;2023-04-15T08:51:23;5.90;;;2.12;;
72406;SDS011;60396;47.550;18.828;2023-04-15T08:53:51;8.30;;;1.60;;
72406;SDS011;60396;47.550;18.828;2023-04-15T08:56:20;5.22;;;1.70;;
72406;SDS011;60396;47.550;18.828;2023-04-15T08:58:50;4.68;;;1.60;;
72406;SDS011;60396;47.550;18.828;2023-04-15T09:01:18;4.85;;;1.40;;
72406;SDS011;60396;47.550;18.828;2023-04-15T09:03:47;3.75;;;1.10;;
72406;SDS011;60396;47.550;18.828;2023-04-15T09:06:16;5.07;;;1.40;;
72406;SDS011;60396;47.550;18.828;2023-04-15T09:08:44;3.70;;;1.17;;
72406;SDS011;60396;47.550;18.828;2023-04-15T09:11:12;4.93;;;1.50;;
72406;SDS011;60396;47.550;18.828;2023-04-15T09:13:39;3.70;;;1.20;;
72406;SDS011;60396;47.550;18.828;2023-04-15T09:16:08;4.87;;;1.00;;
72406;SDS011;60396;47.550;18.828;2023-04-15T09:18:36;3.97;;;0.97;;
72406;SDS011;60396;47.550;18.828;2023-04-15T09:21:15;3.55;;;0.90;;
72406;SDS011;60396;47.550;18.828;2023-04-15T09:23:57;4.37;;;1.30;;
72406;SDS011;60396;47.550;18.828;2023-04-15T09:26:29;2.62;;;0.80;;
72406;SDS011;60396;47.550;18.828;2023-04-15T09:29:10;5.18;;;1.60;;
72406;SDS011;60396;47.550;18.828;2023-04-15T09:31:40;5.67;;;1.90;;
72406;SDS011;60396;47.550;18.828;2023-04-15T09:34:09;5.20;;;1.77;;
72406;SDS011;60396;47.550;18.828;2023-04-15T09:39:16;5.10;;;1.67;;
72406;SDS011;60396;47.550;18.828;2023-04-15T09:41:44;5.07;;;1.67;;
72406;SDS011;60396;47.550;18.828;2023-04-15T09:44:24;5.00;;;1.73;;
72406;SDS011;60396;47.550;18.828;2023-04-15T09:46:53;4.07;;;1.37;;
72406;SDS011;60396;47.550;18.828;2023-04-15T09:49:20;4.72;;;1.50;;
72406;SDS011;60396;47.550;18.828;2023-04-15T09:51:48;6.55;;;2.53;;
72406;SDS011;60396;47.550;18.828;2023-04-15T09:54:37;5.12;;;1.70;;
72406;SDS011;60396;47.550;18.828;2023-04-15T09:57:08;4.47;;;1.40;;
72406;SDS011;60396;47.550;18.828;2023-04-15T09:59:39;4.22;;;1.48;;
72406;SDS011;60396;47.550;18.828;2023-04-15T10:02:07;3.78;;;1.25;;
72406;SDS011;60396;47.550;18.828;2023-04-15T10:04:37;4.25;;;1.02;;
72406;SDS011;60396;47.550;18.828;2023-04-15T10:07:07;4.25;;;1.33;;
72406;SDS011;60396;47.550;18.828;2023-04-15T10:09:37;4.33;;;1.40;;
72406;SDS011;60396;47.550;18.828;2023-04-15T10:12:05;4.62;;;1.62;;
72406;SDS011;60396;47.550;18.828;2023-04-15T10:14:34;3.55;;;1.10;;
72406;SDS011;60396;47.550;18.828;2023-04-15T10:17:05;4.05;;;1.20;;
72406;SDS011;60396;47.550;18.828;2023-04-15T10:19:35;7.00;;;2.40;;
72406;SDS011;60396;47.550;18.828;2023-04-15T10:22:03;2.40;;;0.60;;
72406;SDS011;60396;47.550;18.828;2023-04-15T10:24:31;7.70;;;2.22;;
72406;SDS011;60396;47.550;18.828;2023-04-15T10:26:59;6.35;;;2.08;;
72406;SDS011;60396;47.550;18.828;2023-04-15T10:29:27;3.87;;;1.00;;
72406;SDS011;60396;47.550;18.828;2023-04-15T10:31:56;4.07;;;1.05;;
72406;SDS011;60396;47.550;18.828;2023-04-15T10:34:25;3.70;;;0.97;;
72406;SDS011;60396;47.550;18.828;2023-04-15T10:36:59;3.55;;;0.98;;
72406;SDS011;60396;47.550;18.828;2023-04-15T10:42:06;2.70;;;0.65;;
72406;SDS011;60396;47.550;18.828;2023-04-15T10:44:44;2.42;;;0.40;;
72406;SDS011;60396;47.550;18.828;2023-04-15T10:47:15;1.60;;;0.37;;
72406;SDS011;60396;47.550;18.828;2023-04-15T10:49:54;2.17;;;0.37;;
72406;SDS011;60396;47.550;18.828;2023-04-15T10:52:25;2.00;;;0.40;;
72406;SDS011;60396;47.550;18.828;2023-04-15T10:55:12;2.65;;;0.50;;
72406;SDS011;60396;47.550;18.828;2023-04-15T10:57:42;3.08;;;0.80;;
72406;SDS011;60396;47.550;18.828;2023-04-15T11:00:14;2.50;;;0.77;;
72406;SDS011;60396;47.550;18.828;2023-04-15T11:02:46;2.50;;;0.70;;
72406;SDS011;60396;47.550;18.828;2023-04-15T11:05:19;2.55;;;0.60;;
72406;SDS011;60396;47.550;18.828;2023-04-15T11:12:53;2.43;;;0.50;;
72406;SDS011;60396;47.550;18.828;2023-04-15T11:18:20;4.85;;;1.02;;
72406;SDS011;60396;47.550;18.828;2023-04-15T11:20:52;4.47;;;0.98;;
72406;SDS011;60396;47.550;18.828;2023-04-15T11:26:07;5.00;;;1.43;;
72406;SDS011;60396;47.550;18.828;2023-04-15T11:28:37;3.17;;;0.90;;
72406;SDS011;60396;47.550;18.828;2023-04-15T11:31:07;3.12;;;0.70;;
72406;SDS011;60396;47.550;18.828;2023-04-15T11:33:56;2.47;;;0.50;;
72406;SDS011;60396;47.550;18.828;2023-04-15T11:36:26;3.03;;;0.65;;
72406;SDS011;60396;47.550;18.828;2023-04-15T11:38:56;2.33;;;0.60;;
72406;SDS011;60396;47.550;18.828;2023-04-15T11:41:24;3.10;;;0.70;;
72406;SDS011;60396;47.550;18.828;2023-04-15T11:43:52;4.70;;;1.00;;
72406;SDS011;60396;47.550;18.828;2023-04-15T11:46:20;5.87;;;1.10;;
72406;SDS011;60396;47.550;18.828;2023-04-15T11:48:58;2.65;;;0.75;;
72406;SDS011;60396;47.550;18.828;2023-04-15T11:51:26;3.57;;;1.00;;
72406;SDS011;60396;47.550;18.828;2023-04-15T11:53:58;3.60;;;1.02;;
72406;SDS011;60396;47.550;18.828;2023-04-15T11:56:27;2.62;;;0.70;;
72406;SDS011;60396;47.550;18.828;2023-04-15T11:58:57;3.90;;;1.00;;
72406;SDS011;60396;47.550;18.828;2023-04-15T12:01:30;3.62;;;0.90;;
72406;SDS011;60396;47.550;18.828;2023-04-15T12:04:09;3.47;;;0.73;;
72406;SDS011;60396;47.550;18.828;2023-04-15T12:06:38;3.62;;;0.80;;
72406;SDS011;60396;47.550;18.828;2023-04-15T12:09:07;3.45;;;0.60;;
72406;SDS011;60396;47.550;18.828;2023-04-15T12:11:39;1.90;;;0.40;;
72406;SDS011;60396;47.550;18.828;2023-04-15T12:14:29;2.87;;;0.60;;
72406;SDS011;60396;47.550;18.828;2023-04-15T12:19:36;3.83;;;1.17;;
72406;SDS011;60396;47.550;18.828;2023-04-15T12:22:05;5.45;;;1.40;;
72406;SDS011;60396;47.550;18.828;2023-04-15T12:24:36;3.15;;;1.00;;
72406;SDS011;60396;47.550;18.828;2023-04-15T12:27:08;6.53;;;1.20;;
72406;SDS011;60396;47.550;18.828;2023-04-15T12:29:38;5.17;;;1.03;;
72406;SDS011;60396;47.550;18.828;2023-04-15T12:32:07;4.75;;;1.00;;
72406;SDS011;60396;47.550;18.828;2023-04-15T12:37:15;4.62;;;1.80;;
72406;SDS011;60396;47.550;18.828;2023-04-15T12:39:43;4.37;;;1.45;;
72406;SDS011;60396;47.550;18.828;2023-04-15T12:42:13;4.93;;;1.40;;
72406;SDS011;60396;47.550;18.828;2023-04-15T12:44:41;5.85;;;1.70;;
72406;SDS011;60396;47.550;18.828;2023-04-15T12:47:09;3.72;;;1.23;;
72406;SDS011;60396;47.550;18.828;2023-04-15T12:49:37;4.07;;;1.20;;
72406;SDS011;60396;47.550;18.828;2023-04-15T12:52:06;4.62;;;1.45;;
72406;SDS011;60396;47.550;18.828;2023-04-15T12:54:34;3.30;;;1.03;;
72406;SDS011;60396;47.550;18.828;2023-04-15T12:57:02;4.00;;;1.25;;
72406;SDS011;60396;47.550;18.828;2023-04-15T12:59:34;3.75;;;1.20;;
72406;SDS011;60396;47.550;18.828;2023-04-15T13:02:02;3.45;;;0.90;;
72406;SDS011;60396;47.550;18.828;2023-04-15T13:04:30;4.43;;;1.15;;
72406;SDS011;60396;47.550;18.828;2023-04-15T13:06:58;7.03;;;1.27;;
72406;SDS011;60396;47.550;18.828;2023-04-15T13:09:27;4.47;;;1.60;;
72406;SDS011;60396;47.550;18.828;2023-04-15T13:11:55;6.80;;;2.00;;
72406;SDS011;60396;47.550;18.828;2023-04-15T13:14:24;4.30;;;1.37;;
72406;SDS011;60396;47.550;18.828;2023-04-15T13:16:51;6.50;;;1.65;;
72406;SDS011;60396;47.550;18.828;2023-04-15T13:19:22;4.20;;;1.40;;
72406;SDS011;60396;47.550;18.828;2023-04-15T13:21:50;3.67;;;0.90;;
72406;SDS011;60396;47.550;18.828;2023-04-15T13:24:18;4.57;;;1.40;;
72406;SDS011;60396;47.550;18.828;2023-04-15T13:26:45;5.32;;;1.83;;
72406;SDS011;60396;47.550;18.828;2023-04-15T13:29:16;4.72;;;1.40;;
72406;SDS011;60396;47.550;18.828;2023-04-15T13:31:44;4.77;;;0.90;;
72406;SDS011;60396;47.550;18.828;2023-04-15T13:34:12;5.85;;;1.60;;
72406;SDS011;60396;47.550;18.828;2023-04-15T13:36:40;5.68;;;1.62;;
72406;SDS011;60396;47.550;18.828;2023-04-15T13:39:08;5.00;;;1.60;;
72406;SDS011;60396;47.550;18.828;2023-04-15T13:41:35;7.32;;;2.22;;
72406;SDS011;60396;47.550;18.828;2023-04-15T13:44:03;5.50;;;1.93;;
72406;SDS011;60396;47.550;18.828;2023-04-15T13:46:32;5.87;;;1.92;;
72406;SDS011;60396;47.550;18.828;2023-04-15T13:49:00;4.90;;;1.58;;
72406;SDS011;60396;47.550;18.828;2023-04-15T13:51:28;5.97;;;2.22;;
72406;SDS011;60396;47.550;18.828;2023-04-15T13:53:56;4.80;;;1.50;;
72406;SDS011;60396;47.550;18.828;2023-04-15T13:56:24;5.83;;;1.50;;
72406;SDS011;60396;47.550;18.828;2023-04-15T13:58:52;4.25;;;1.60;;
72406;SDS011;60396;47.550;18.828;2023-04-15T14:01:24;5.50;;;2.00;;
72406;SDS011;60396;47.550;18.828;2023-04-15T14:03:53;5.20;;;1.12;;
72406;SDS011;60396;47.550;18.828;2023-04-15T14:06:20;4.05;;;1.30;;
72406;SDS011;60396;47.550;18.828;2023-04-15T14:08:48;4.63;;;1.13;;
72406;SDS011;60396;47.550;18.828;2023-04-15T14:11:16;4.35;;;1.30;;
72406;SDS011;60396;47.550;18.828;2023-04-15T14:13:44;4.72;;;1.10;;
72406;SDS011;60396;47.550;18.828;2023-04-15T14:16:11;4.03;;;1.08;;
72406;SDS011;60396;47.550;18.828;2023-04-15T14:18:39;3.03;;;0.60;;
72406;SDS011;60396;47.550;18.828;2023-04-15T14:21:07;3.40;;;0.70;;
72406;SDS011;60396;47.550;18.828;2023-04-15T14:23:34;3.25;;;0.88;;
72406;SDS011;60396;47.550;18.828;2023-04-15T14:26:02;2.45;;;0.80;;
72406;SDS011;60396;47.550;18.828;2023-04-15T14:28:30;3.67;;;0.80;;
72406;SDS011;60396;47.550;18.828;2023-04-15T14:30:58;3.05;;;0.70;;
72406;SDS011;60396;47.550;18.828;2023-04-15T14:33:26;4.03;;;0.60;;
72406;SDS011;60396;47.550;18.828;2023-04-15T14:35:53;4.15;;;0.98;;
72406;SDS011;60396;47.550;18.828;2023-04-15T14:38:21;2.33;;;0.62;;
72406;SDS011;60396;47.550;18.828;2023-04-15T14:40:49;2.00;;;0.50;;
72406;SDS011;60396;47.550;18.828;2023-04-15T14:43:17;2.58;;;0.65;;
72406;SDS011;60396;47.550;18.828;2023-04-15T14:45:45;2.53;;;0.40;;
72406;SDS011;60396;47.550;18.828;2023-04-15T14:48:13;2.65;;;0.60;;
72406;SDS011;60396;47.550;18.828;2023-04-15T14:50:41;2.65;;;0.65;;
72406;SDS011;60396;47.550;18.828;2023-04-15T14:53:08;2.53;;;0.70;;
72406;SDS011;60396;47.550;18.828;2023-04-15T14:55:37;4.28;;;1.02;;
72406;SDS011;60396;47.550;18.828;2023-04-15T14:58:05;18.93;;;7.47;;
72406;SDS011;60396;47.550;18.828;2023-04-15T15:00:34;6.85;;;2.08;;
72406;SDS011;60396;47.550;18.828;2023-04-15T15:03:05;6.75;;;2.40;;